Big Elk, Kansas
Current Conditions -  °F | °C
As of 3:53 PM on Wednesday 17 Dec 2014 (Local Time) from KJLN Reporting Station
Ice Pellets Ice Pellets  
Wind Chill: 30°   Ceiling: 6000
Heat Index: 34°   Visibility: 3mi
Dew Point: 28°   Wind: 5mph
Humidity: 79%   Direction: NA
Pressure: 30.22"   Gusts: NA
Location:  37.0595°N, 94.7764°W
Report Text: KJLN 172153Z VRB04KT 3SM -PLRA OVC060 01/M02 A3022 RMK AO2 RAB35PLB50 SLP242 P0000 T00111022
Loading
Personal Weather Stations






























Interactive Weather Map New forecast layout! Learn more

10-Day Weather Forecast

Advertisements
Track Severe Weather on mobile